Time;durP1;ratioP1;P1;durP2;ratioP2;P2;SDS_P1;SDS_P2;PMS_P1;PMS_P2;Temp;Humidity;BMP_temperature;BMP_pressure;BME280_temperature;BME280_humidity;BME280_pressure;Samples;Min_cycle;Max_cycle;Signal;HPM_P1;HPM_P2
2023/07/04 00:01:10;;;;;;;2.87;1.90;;;;;;;17.94;89.41;97974.00;5111681;28;20218;-84
2023/07/04 00:03:39;;;;;;;2.73;2.03;;;;;;;17.83;89.74;97977.78;5112008;28;20661;-84
2023/07/04 00:06:08;;;;;;;3.57;2.30;;;;;;;17.71;91.15;97981.66;5111914;28;20569;-83
2023/07/04 00:08:35;;;;;;;3.37;2.00;;;;;;;17.61;91.91;97980.91;5111664;28;20217;-84
2023/07/04 00:11:02;;;;;;;2.47;1.70;;;;;;;17.56;92.47;97980.50;5111701;28;20204;-84
2023/07/04 00:13:29;;;;;;;2.57;2.13;;;;;;;17.54;92.70;97979.00;5111706;28;20210;-83
2023/07/04 00:15:56;;;;;;;3.03;2.10;;;;;;;17.46;93.49;97982.44;5111620;28;20210;-83
2023/07/04 00:18:25;;;;;;;2.20;1.83;;;;;;;17.37;93.85;97972.66;5111913;28;20229;-83
2023/07/04 00:20:55;;;;;;;3.20;1.80;;;;;;;17.33;94.39;97971.25;5111544;28;20202;-83
2023/07/04 00:23:21;;;;;;;3.23;1.80;;;;;;;17.27;95.05;97976.34;5111554;28;20696;-83
2023/07/04 00:25:48;;;;;;;2.77;2.17;;;;;;;17.18;95.95;97972.75;5111558;28;20212;-84
2023/07/04 00:28:15;;;;;;;2.63;1.90;;;;;;;17.19;96.15;97982.44;5111578;28;20222;-83
2023/07/04 00:30:42;;;;;;;3.37;2.07;;;;;;;17.13;96.95;97979.56;5111426;28;20209;-82
2023/07/04 00:33:08;;;;;;;2.97;1.80;;;;;;;17.14;97.05;97975.88;5111913;28;20300;-83
2023/07/04 00:35:36;;;;;;;3.97;2.23;;;;;;;17.18;97.03;97977.28;5113399;28;20699;-83
2023/07/04 00:38:03;;;;;;;2.67;2.13;;;;;;;17.20;97.09;97981.44;5115721;28;20230;-83
2023/07/04 00:40:30;;;;;;;3.60;2.10;;;;;;;17.29;96.70;97975.22;5115295;28;20206;-83
2023/07/04 00:43:02;;;;;;;2.60;1.60;;;;;;;17.42;95.83;97970.38;5115584;28;20217;-82
2023/07/04 00:45:31;;;;;;;3.93;2.17;;;;;;;17.50;95.03;97966.94;5115473;28;20807;-82
2023/07/04 00:48:03;;;;;;;2.93;1.90;;;;;;;17.54;94.91;97979.00;5115613;28;20230;-83
2023/07/04 00:50:33;;;;;;;1.90;1.67;;;;;;;17.59;94.68;97984.72;5114974;28;20723;-85
2023/07/04 00:53:02;;;;;;;2.30;1.57;;;;;;;17.64;94.24;97987.78;5115923;28;20202;-83
2023/07/04 00:55:32;;;;;;;2.43;1.97;;;;;;;17.62;94.21;97982.56;5115092;28;20236;-83
2023/07/04 00:58:04;;;;;;;3.20;2.30;;;;;;;17.60;94.47;97983.72;5115320;28;20537;-83
2023/07/04 01:00:31;;;;;;;3.47;1.90;;;;;;;17.60;94.67;97984.56;5113187;28;20259;-82
2023/07/04 01:03:02;;;;;;;2.47;2.07;;;;;;;17.62;94.96;97985.25;5112538;28;20208;-83
2023/07/04 01:05:33;;;;;;;2.57;2.00;;;;;;;17.62;95.51;97985.25;5112344;28;20225;-83
2023/07/04 01:08:05;;;;;;;3.30;2.30;;;;;;;17.66;95.55;97981.28;5113094;28;20229;-83
2023/07/04 01:10:37;;;;;;;3.97;2.00;;;;;;;17.66;96.12;97983.97;5115087;28;20209;-83
2023/07/04 01:13:03;;;;;;;2.60;1.90;;;;;;;17.65;96.08;97987.63;5115184;28;20212;-84
2023/07/04 01:15:30;;;;;;;2.80;1.87;;;;;;;17.66;97.01;97988.44;5115162;28;20210;-84
2023/07/04 01:17:59;;;;;;;4.03;2.20;;;;;;;17.67;97.38;97996.31;5115038;28;20253;-83
2023/07/04 01:20:26;;;;;;;2.83;1.77;;;;;;;17.73;97.11;97990.38;5114415;28;20218;-83
2023/07/04 01:23:00;;;;;;;3.13;1.90;;;;;;;17.81;96.80;97993.09;5115108;28;20214;-82
2023/07/04 01:25:34;;;;;;;2.33;2.00;;;;;;;17.85;96.44;97986.47;5114851;28;20235;-84
2023/07/04 01:28:04;;;;;;;2.60;2.20;;;;;;;17.84;96.53;97984.78;5114719;28;20590;-83
2023/07/04 01:30:38;;;;;;;3.10;2.10;;;;;;;17.79;97.29;97986.25;5114532;28;20241;-83
2023/07/04 01:33:07;;;;;;;3.50;2.10;;;;;;;17.81;97.49;97986.94;5114529;28;20652;-83
2023/07/04 01:35:34;;;;;;;3.00;2.10;;;;;;;17.81;97.75;97989.59;5114787;28;20198;-83
2023/07/04 01:38:01;;;;;;;2.90;1.80;;;;;;;17.81;97.53;97987.75;5114643;28;20226;-83
2023/07/04 01:40:30;;;;;;;3.33;2.13;;;;;;;17.83;97.87;97985.78;5114364;28;20221;-82
2023/07/04 01:42:57;;;;;;;3.43;2.50;;;;;;;17.82;98.31;97989.47;5114421;28;20263;-79
2023/07/04 01:45:25;;;;;;;3.63;2.50;;;;;;;17.85;98.23;97997.16;5114306;28;20253;-84
2023/07/04 01:47:52;;;;;;;2.97;2.40;;;;;;;17.83;98.35;97995.63;5113270;28;20232;-84
2023/07/04 01:50:20;;;;;;;3.80;2.00;;;;;;;17.84;98.31;97990.13;5114220;28;20650;-83
2023/07/04 01:52:46;;;;;;;2.83;2.20;;;;;;;17.86;97.87;97984.66;5114334;28;20559;-84
2023/07/04 01:55:15;;;;;;;3.43;2.30;;;;;;;17.87;97.98;97986.31;5114341;28;20210;-83
2023/07/04 01:57:42;;;;;;;3.90;2.40;;;;;;;17.82;98.26;97986.78;5114485;28;20587;-84
2023/07/04 02:00:10;;;;;;;2.93;2.07;;;;;;;17.78;98.58;97998.78;5113843;28;20668;-83
2023/07/04 02:02:39;;;;;;;2.80;1.93;;;;;;;17.78;98.65;97996.09;5114309;28;20202;-83
2023/07/04 02:05:06;;;;;;;2.20;2.00;;;;;;;17.75;98.41;97991.03;5114021;28;20237;-83
2023/07/04 02:07:32;;;;;;;2.90;2.00;;;;;;;17.72;99.04;97991.38;5113800;28;20720;-83
2023/07/04 02:09:59;;;;;;;2.03;1.83;;;;;;;17.70;98.92;97997.84;5113682;28;20202;-84
2023/07/04 02:12:26;;;;;;;2.23;1.80;;;;;;;17.69;98.49;97988.97;5113934;28;20213;-83
2023/07/04 02:14:52;;;;;;;3.23;2.10;;;;;;;17.69;98.44;97994.34;5113810;28;20644;-84
2023/07/04 02:17:19;;;;;;;2.80;1.90;;;;;;;17.72;98.23;97998.53;5114121;28;20322;-83
2023/07/04 02:19:47;;;;;;;1.80;1.70;;;;;;;17.72;97.98;97996.72;5113513;28;20216;-83
2023/07/04 02:22:13;;;;;;;2.33;2.00;;;;;;;17.67;98.06;97985.63;5113828;28;20213;-84
2023/07/04 02:24:40;;;;;;;3.60;2.33;;;;;;;17.62;98.65;97987.91;5113634;28;20360;-83
2023/07/04 02:27:07;;;;;;;3.10;1.90;;;;;;;17.61;99.08;97994.25;5113401;28;20226;-83
2023/07/04 02:29:35;;;;;;;2.27;1.87;;;;;;;17.60;99.50;97989.91;5113552;28;20207;-84
2023/07/04 02:32:01;;;;;;;2.57;2.10;;;;;;;17.56;100.00;97996.56;5113418;28;20259;-83
2023/07/04 02:34:28;;;;;;;2.67;2.30;;;;;;;17.56;100.00;97993.88;5113351;28;20202;-83
2023/07/04 02:36:56;;;;;;;2.63;2.30;;;;;;;17.52;100.00;97992.53;5113346;28;20233;-82
2023/07/04 02:39:26;;;;;;;2.40;1.90;;;;;;;17.46;100.00;97997.63;5113059;28;20560;-84
2023/07/04 02:41:52;;;;;;;3.67;2.10;;;;;;;17.34;100.00;97988.97;5113462;28;20216;-83
2023/07/04 02:44:19;;;;;;;3.67;2.13;;;;;;;17.28;100.00;97989.56;5114327;28;20230;-82
2023/07/04 02:46:45;;;;;;;2.57;2.07;;;;;;;17.16;100.00;97996.13;5123829;28;20236;-84
2023/07/04 02:49:12;;;;;;;2.60;2.07;;;;;;;17.09;100.00;98003.03;5124629;28;20240;-81
2023/07/04 02:51:38;;;;;;;3.80;2.20;;;;;;;17.01;100.00;98002.94;5119100;28;20214;-82
2023/07/04 02:54:06;;;;;;;2.50;2.10;;;;;;;16.98;100.00;98013.06;5113219;28;20561;-83
2023/07/04 02:56:33;;;;;;;2.83;2.07;;;;;;;16.90;100.00;98011.16;5113199;28;20230;-82
2023/07/04 02:58:59;;;;;;;3.73;1.90;;;;;;;16.81;100.00;98006.69;5112905;28;20684;-82
2023/07/04 03:01:26;;;;;;;3.37;2.27;;;;;;;16.78;100.00;98001.66;5112924;28;20210;-82
2023/07/04 03:03:52;;;;;;;3.27;2.47;;;;;;;16.83;100.00;98004.72;5113156;28;20579;-83
2023/07/04 03:06:19;;;;;;;2.40;2.07;;;;;;;16.85;100.00;98008.09;5113243;28;20217;-82
2023/07/04 03:08:45;;;;;;;2.67;2.23;;;;;;;16.88;100.00;98014.97;5109278;22;20261;-84
2023/07/04 03:11:13;;;;;;;2.77;2.20;;;;;;;16.89;100.00;98017.47;5091896;28;20260;-84
2023/07/04 03:13:40;;;;;;;2.57;2.00;;;;;;;16.90;100.00;98016.50;5092284;28;20263;-84
2023/07/04 03:16:06;;;;;;;2.53;2.10;;;;;;;16.90;100.00;98016.50;5092196;28;20217;-84
2023/07/04 03:18:33;;;;;;;2.67;2.47;;;;;;;16.95;100.00;98018.72;5091977;28;20231;-84
2023/07/04 03:21:00;;;;;;;2.60;2.00;;;;;;;17.01;100.00;98026.97;5091811;28;20681;-84
2023/07/04 03:23:26;;;;;;;2.57;2.20;;;;;;;17.01;100.00;98023.47;5091714;28;20653;-84
2023/07/04 03:25:53;;;;;;;3.60;2.10;;;;;;;17.05;100.00;98016.81;5091961;28;20558;-84
2023/07/04 03:28:21;;;;;;;2.57;2.10;;;;;;;16.99;100.00;98025.44;5091830;28;20313;-84
2023/07/04 03:30:47;;;;;;;3.10;2.10;;;;;;;16.99;100.00;98026.28;5091560;28;20214;-84
2023/07/04 03:33:14;;;;;;;3.13;2.30;;;;;;;16.99;100.00;98026.28;5091661;28;20213;-84
2023/07/04 03:35:41;;;;;;;3.00;2.00;;;;;;;17.04;100.00;98016.00;5091619;28;20202;-84
2023/07/04 03:38:07;;;;;;;2.90;2.03;;;;;;;17.08;100.00;98021.88;5091375;28;20226;-86
2023/07/04 03:40:34;;;;;;;3.30;2.30;;;;;;;17.12;100.00;98025.94;5091292;28;20703;-84
2023/07/04 03:43:00;;;;;;;3.00;2.13;;;;;;;17.16;100.00;98025.50;5091652;28;20207;-85
2023/07/04 03:45:28;;;;;;;2.67;2.00;;;;;;;17.18;100.00;98018.16;5091649;28;20241;-84
2023/07/04 03:47:54;;;;;;;2.80;2.10;;;;;;;17.18;100.00;98023.50;5091227;28;20712;-84
2023/07/04 03:50:21;;;;;;;2.37;2.10;;;;;;;17.27;100.00;98025.28;5091087;28;20223;-84
2023/07/04 03:52:47;;;;;;;2.90;2.53;;;;;;;17.33;100.00;98014.00;5091579;28;20214;-84
2023/07/04 03:55:14;;;;;;;2.87;2.07;;;;;;;17.31;100.00;98009.81;5091271;28;20234;-85
2023/07/04 03:57:40;;;;;;;3.13;2.40;;;;;;;17.34;100.00;98021.03;5091436;28;20607;-85
2023/07/04 04:00:09;;;;;;;3.13;2.00;;;;;;;17.35;100.00;98016.50;5091157;28;20203;-85
2023/07/04 04:02:37;;;;;;;2.67;1.77;;;;;;;17.40;100.00;98025.78;5091189;28;20218;-84
2023/07/04 04:05:04;;;;;;;2.60;2.07;;;;;;;17.43;100.00;98017.47;5091049;28;20227;-84
2023/07/04 04:07:30;;;;;;;2.90;1.70;;;;;;;17.46;100.00;98013.66;5091406;28;20231;-84
2023/07/04 04:09:57;;;;;;;2.57;2.00;;;;;;;17.44;100.00;98010.31;5090488;28;20236;-84
2023/07/04 04:12:23;;;;;;;2.40;1.83;;;;;;;17.42;100.00;98012.25;5091081;28;20210;-84
2023/07/04 04:14:50;;;;;;;2.67;1.73;;;;;;;17.44;100.00;98013.78;5091201;28;20207;-83
2023/07/04 04:17:17;;;;;;;2.60;2.10;;;;;;;17.42;100.00;98017.59;5090981;28;20226;-84
2023/07/04 04:19:45;;;;;;;2.13;1.90;;;;;;;17.45;100.00;98010.16;5090755;28;20580;-84
2023/07/04 04:22:11;;;;;;;2.13;1.80;;;;;;;17.43;100.00;98014.78;5091329;28;20211;-84
2023/07/04 04:24:38;;;;;;;2.87;1.93;;;;;;;17.45;100.00;98020.84;5091080;28;20234;-83
2023/07/04 04:27:08;;;;;;;2.00;1.83;;;;;;;17.48;100.00;98012.50;5090795;28;20230;-84
2023/07/04 04:29:35;;;;;;;1.87;1.53;;;;;;;17.53;100.00;98010.22;5090606;28;20673;-84
2023/07/04 04:32:01;;;;;;;2.80;1.80;;;;;;;17.56;100.00;98020.59;5091174;28;20206;-84
2023/07/04 04:34:28;;;;;;;2.97;2.00;;;;;;;17.66;100.00;98023.19;5091490;28;20210;-84
2023/07/04 04:36:55;;;;;;;1.93;1.70;;;;;;;17.73;100.00;98025.13;5091076;28;20238;-84
2023/07/04 04:39:22;;;;;;;2.80;2.00;;;;;;;17.81;100.00;98022.50;5090677;28;20207;-85
2023/07/04 04:41:52;;;;;;;2.00;1.80;;;;;;;17.94;100.00;98017.63;5091015;28;20207;-84
2023/07/04 04:44:19;;;;;;;2.33;1.70;;;;;;;18.06;100.00;98024.44;5090535;28;20289;-80
2023/07/04 04:46:48;;;;;;;2.37;2.10;;;;;;;18.12;99.91;98023.81;5090579;28;20257;-84
2023/07/04 04:49:17;;;;;;;2.17;1.60;;;;;;;18.19;99.23;98024.88;5090684;28;20301;-84
2023/07/04 04:51:44;;;;;;;2.03;1.60;;;;;;;18.25;99.11;98024.25;5091062;28;20210;-83
2023/07/04 04:54:13;;;;;;;2.13;1.80;;;;;;;18.31;98.15;98029.00;5090880;28;20207;-83
2023/07/04 04:56:40;;;;;;;1.70;1.50;;;;;;;18.33;98.14;98032.34;5090866;28;20210;-83
2023/07/04 04:59:06;;;;;;;2.07;1.67;;;;;;;18.38;97.18;98034.53;5090926;28;20272;-87
2023/07/04 05:01:36;;;;;;;2.00;1.60;;;;;;;18.45;97.08;98033.78;5090861;28;20225;-81
2023/07/04 05:04:03;;;;;;;1.73;1.63;;;;;;;18.56;96.83;98038.88;5090555;28;20606;-82
2023/07/04 05:06:32;;;;;;;1.90;1.63;;;;;;;18.74;96.05;98036.97;5090626;28;20231;-82
2023/07/04 05:08:59;;;;;;;3.53;1.77;;;;;;;18.82;95.18;98034.31;5090444;28;20220;-83
2023/07/04 05:11:27;;;;;;;1.93;1.60;;;;;;;18.93;93.67;98036.72;5090597;28;20207;-81
2023/07/04 05:13:53;;;;;;;2.53;1.60;;;;;;;19.06;92.72;98033.59;5090549;28;20206;-83
2023/07/04 05:16:21;;;;;;;2.80;1.70;;;;;;;19.10;92.41;98035.81;5090793;28;20218;-84
2023/07/04 05:18:49;;;;;;;2.47;1.77;;;;;;;19.15;92.22;98041.50;5090298;28;20739;-83
2023/07/04 05:21:18;;;;;;;2.27;1.60;;;;;;;19.21;92.39;98046.25;5090472;28;20203;-83
2023/07/04 05:23:46;;;;;;;2.93;1.90;;;;;;;19.22;92.44;98050.63;5093527;28;20207;-83
2023/07/04 05:26:15;;;;;;;3.33;1.87;;;;;;;19.31;92.52;98057.69;5093296;28;20240;-84
2023/07/04 05:28:43;;;;;;;2.03;1.83;;;;;;;19.32;91.68;98045.97;5094004;28;20579;-83
2023/07/04 05:31:12;;;;;;;2.53;1.80;;;;;;;19.31;91.41;98046.97;5093424;28;20681;-83
2023/07/04 05:33:39;;;;;;;2.97;1.93;;;;;;;19.25;91.27;98044.94;5093964;28;20215;-81
2023/07/04 05:36:07;;;;;;;2.43;2.07;;;;;;;19.16;91.42;98053.06;5093927;28;20203;-80
2023/07/04 05:38:34;;;;;;;3.00;1.90;;;;;;;19.11;91.44;98050.88;5093869;28;20227;-80
2023/07/04 05:41:01;;;;;;;2.60;2.00;;;;;;;19.09;91.43;98046.69;5093600;28;20202;-81
2023/07/04 05:43:28;;;;;;;3.80;2.00;;;;;;;19.35;90.96;98051.00;5094006;28;20215;-80
2023/07/04 05:45:56;;;;;;;1.97;1.77;;;;;;;19.79;88.89;98040.88;5094076;28;20234;-81
2023/07/04 05:48:23;;;;;;;3.83;1.80;;;;;;;20.48;85.19;98042.09;5093568;28;20716;-81
2023/07/04 05:50:54;;;;;;;2.60;1.90;;;;;;;21.02;80.61;98049.41;5093442;28;20229;-81
2023/07/04 05:53:23;;;;;;;2.47;1.70;;;;;;;21.26;78.47;98041.25;5093504;28;20550;-81
2023/07/04 05:55:49;;;;;;;2.03;1.77;;;;;;;21.18;78.14;98045.81;5093662;28;20213;-81
2023/07/04 05:58:16;;;;;;;2.10;1.90;;;;;;;20.99;78.81;98051.59;5094121;28;20230;-80
2023/07/04 06:00:42;;;;;;;2.33;1.80;;;;;;;20.84;79.45;98051.44;5093123;28;20210;-81
2023/07/04 06:03:10;;;;;;;2.60;2.00;;;;;;;20.70;79.79;98051.31;5093749;28;20214;-81
2023/07/04 06:05:39;;;;;;;3.60;2.03;;;;;;;20.66;79.64;98047.31;5093322;28;20231;-80
2023/07/04 06:08:07;;;;;;;4.07;2.20;;;;;;;20.75;79.15;98055.16;5094376;28;20238;-79
2023/07/04 06:10:33;;;;;;;3.83;2.13;;;;;;;20.88;78.68;98052.81;5093506;28;20213;-80
2023/07/04 06:13:00;;;;;;;2.17;1.90;;;;;;;21.15;77.34;98049.69;5093101;28;20222;-80
2023/07/04 06:15:27;;;;;;;2.47;1.83;;;;;;;21.79;74.12;98044.03;5093129;28;20205;-80
2023/07/04 06:17:53;;;;;;;5.17;2.10;;;;;;;22.65;69.34;98031.91;5092938;28;20222;-80
2023/07/04 06:20:21;;;;;;;2.73;2.00;;;;;;;23.34;64.38;98012.59;5092819;28;20218;-80
2023/07/04 06:22:47;;;;;;;3.93;2.27;;;;;;;23.56;62.66;98016.19;5093038;28;20211;-81
2023/07/04 06:25:14;;;;;;;3.03;2.03;;;;;;;23.43;61.27;98007.94;5093063;28;20580;-80
2023/07/04 06:27:41;;;;;;;3.37;2.27;;;;;;;23.37;62.28;98020.34;5092495;28;20237;-81
2023/07/04 06:30:10;;;;;;;4.37;2.30;;;;;;;23.41;60.07;98013.50;5092498;28;20681;-80
2023/07/04 06:32:37;;;;;;;2.67;2.23;;;;;;;23.25;61.02;98013.75;5092377;28;20309;-80
2023/07/04 06:35:05;;;;;;;3.27;2.07;;;;;;;23.06;61.73;98016.97;5092533;28;20649;-80
2023/07/04 06:37:33;;;;;;;3.63;2.23;;;;;;;22.74;61.96;98020.00;5092613;28;20604;-81
2023/07/04 06:39:59;;;;;;;2.33;2.13;;;;;;;22.57;63.46;98034.69;5092313;28;20215;-81
2023/07/04 06:42:26;;;;;;;3.73;1.90;;;;;;;22.54;64.75;98039.59;5092282;28;20210;-81
2023/07/04 06:44:52;;;;;;;4.33;2.37;;;;;;;22.53;64.40;98038.75;5092545;28;20210;-81
2023/07/04 06:47:19;;;;;;;4.17;2.30;;;;;;;22.68;63.23;98036.09;5092153;28;20231;-80
2023/07/04 06:49:46;;;;;;;4.70;2.63;;;;;;;22.82;58.55;98011.88;5091926;28;20229;-82
2023/07/04 06:52:12;;;;;;;3.63;2.50;;;;;;;22.79;56.70;98012.22;5092633;28;20210;-80
2023/07/04 06:54:40;;;;;;;4.37;2.80;;;;;;;22.82;56.02;98003.78;5092448;28;20210;-80
2023/07/04 06:57:07;;;;;;;4.97;2.57;;;;;;;22.82;54.41;97993.00;5092165;28;20226;-81
2023/07/04 06:59:33;;;;;;;4.47;2.30;;;;;;;22.88;54.49;97994.97;5091780;28;20211;-80
2023/07/04 07:02:00;;;;;;;3.37;2.40;;;;;;;23.05;54.17;97999.09;5091928;28;20226;-80
2023/07/04 07:04:26;;;;;;;4.17;2.53;;;;;;;23.04;52.77;97994.75;5092298;28;20210;-80
2023/07/04 07:06:53;;;;;;;5.63;2.77;;;;;;;22.80;51.38;97981.56;5092043;28;20234;-81
2023/07/04 07:09:19;;;;;;;5.10;2.70;;;;;;;22.64;51.67;98002.47;5091807;28;20779;-80
2023/07/04 07:11:47;;;;;;;4.93;2.40;;;;;;;22.61;53.00;98008.22;5091942;28;20207;-80
2023/07/04 07:14:13;;;;;;;3.83;2.50;;;;;;;22.66;53.70;98017.41;5091902;28;20207;-80
2023/07/04 07:16:40;;;;;;;4.40;2.57;;;;;;;22.69;53.28;98017.06;5091606;28;20203;-81
2023/07/04 07:19:06;;;;;;;4.47;2.30;;;;;;;22.71;53.09;98024.94;5091664;28;20211;-81
2023/07/04 07:21:33;;;;;;;5.23;2.60;;;;;;;22.66;52.23;98017.41;5091849;28;20214;-81
2023/07/04 07:24:02;;;;;;;4.17;2.53;;;;;;;22.73;51.89;98012.97;5091649;28;20685;-81
2023/07/04 07:26:30;;;;;;;3.00;2.40;;;;;;;22.73;52.60;98022.91;5091501;28;20242;-81
2023/07/04 07:28:58;;;;;;;4.33;2.40;;;;;;;22.72;51.99;98024.75;5091847;28;20256;-81
2023/07/04 07:31:26;;;;;;;5.73;2.90;;;;;;;22.81;51.01;98012.88;5091514;28;20214;-81
2023/07/04 07:33:53;;;;;;;4.87;2.70;;;;;;;22.77;51.26;98013.44;5091738;28;20207;-81
2023/07/04 07:36:22;;;;;;;5.00;2.70;;;;;;;22.77;52.06;98025.06;5091462;28;20198;-81
2023/07/04 07:38:50;;;;;;;5.77;3.23;;;;;;;22.93;54.13;98041.03;5091230;28;20237;-81
2023/07/04 07:41:18;;;;;;;7.47;2.87;;;;;;;23.03;50.54;98003.88;5091080;28;20699;-81
2023/07/04 07:43:45;;;;;;;4.93;2.73;;;;;;;23.27;50.54;98008.13;5091297;28;20206;-81
2023/07/04 07:46:15;;;;;;;2.73;2.20;;;;;;;23.45;50.58;98004.03;5090932;28;20231;-81
2023/07/04 07:48:42;;;;;;;3.77;2.70;;;;;;;23.56;49.99;98006.25;5091372;28;20237;-81
2023/07/04 07:51:10;;;;;;;5.17;2.73;;;;;;;23.65;50.25;98001.56;5091175;28;20203;-81
2023/07/04 07:53:37;;;;;;;5.30;3.13;;;;;;;23.74;51.01;98020.16;5091301;28;20560;-82
2023/07/04 07:56:05;;;;;;;5.13;2.97;;;;;;;23.72;49.79;98000.59;5091099;28;20229;-81
2023/07/04 07:58:32;;;;;;;4.63;3.00;;;;;;;23.84;50.29;98011.75;5091084;28;20226;-81
2023/07/04 08:00:59;;;;;;;9.73;3.33;;;;;;;23.76;49.63;98001.03;5091056;28;20206;-81
2023/07/04 08:03:28;;;;;;;7.13;2.90;;;;;;;23.82;49.49;98003.81;5091270;28;20213;-82
2023/07/04 08:05:54;;;;;;;3.67;2.70;;;;;;;23.89;49.41;98012.03;5091050;28;20257;-81
2023/07/04 08:08:21;;;;;;;4.50;2.70;;;;;;;24.02;49.09;98004.88;5091048;28;20245;-82
2023/07/04 08:10:47;;;;;;;4.43;2.60;;;;;;;24.04;48.70;98000.16;5090565;28;20222;-81
2023/07/04 08:13:14;;;;;;;4.10;2.90;;;;;;;24.11;49.20;98001.03;5091082;28;20305;-82
2023/07/04 08:15:40;;;;;;;6.07;2.97;;;;;;;24.17;48.63;97994.88;5091162;28;20629;-81
2023/07/04 08:18:09;;;;;;;6.43;3.13;;;;;;;24.23;48.52;97999.50;5090897;28;20226;-82
2023/07/04 08:20:37;;;;;;;5.33;2.93;;;;;;;24.35;48.81;98003.34;5090996;28;20207;-82
2023/07/04 08:23:04;;;;;;;4.30;3.03;;;;;;;24.22;47.42;97975.38;5090849;28;20206;-82
2023/07/04 08:25:30;;;;;;;4.13;2.80;;;;;;;24.13;47.84;97988.16;5090830;28;20218;-81
2023/07/04 08:27:58;;;;;;;6.20;3.37;;;;;;;24.29;49.02;97996.00;5091029;28;20222;-82
2023/07/04 08:30:24;;;;;;;5.10;2.83;;;;;;;;;;5090542;28;20667;-82
2023/07/04 08:32:53;;;;;;;4.37;3.03;;;;;;;24.22;48.34;97997.81;5091262;28;20211;-82
2023/07/04 08:35:20;;;;;;;7.00;3.20;;;;;;;24.33;49.15;97999.16;5090889;28;20548;-82
2023/07/04 08:37:48;;;;;;;4.93;3.13;;;;;;;24.37;50.62;98022.88;5091001;28;20219;-82
2023/07/04 08:40:16;;;;;;;4.47;3.30;;;;;;;24.45;49.94;98009.22;5090902;28;20206;-81
2023/07/04 08:42:44;;;;;;;6.47;3.60;;;;;;;24.50;48.56;97997.84;5090927;28;20610;-82
2023/07/04 08:45:21;;;;;;;6.03;3.40;;;;;;;24.67;48.27;97996.53;5091019;28;20588;-82
2023/07/04 08:47:48;;;;;;;5.23;3.40;;;;;;;24.72;48.72;98011.13;5090690;28;20592;-81
2023/07/04 08:50:23;;;;;;;5.57;3.60;;;;;;;24.53;47.28;97992.88;5090584;28;20308;-81
2023/07/04 08:52:57;;;;;;;5.97;3.57;;;;;;;24.56;47.56;98000.59;5091012;28;20207;-81
2023/07/04 08:55:25;;;;;;;6.27;3.10;;;;;;;24.62;47.41;97989.03;5090780;28;20206;-82
2023/07/04 08:57:54;;;;;;;6.93;3.30;;;;;;;24.53;47.74;97995.59;5094188;28;20728;-81
2023/07/04 09:00:28;;;;;;;7.30;3.50;;;;;;;24.66;47.96;98003.81;5094134;28;20215;-81
2023/07/04 09:03:10;;;;;;;5.97;3.47;;;;;;;24.73;46.77;97993.88;5094431;28;20226;-81
2023/07/04 09:05:47;;;;;;;3.90;3.03;;;;;;;24.53;46.76;97983.94;5094733;28;20199;-81
2023/07/04 09:08:23;;;;;;;4.10;3.00;;;;;;;24.25;47.90;97991.19;5098960;22;20322;-77
2023/07/04 09:10:54;;;;;;;4.90;3.40;;;;;;;23.95;48.32;97993.19;5073369;28;20218;-77
2023/07/04 09:13:26;;;;;;;4.40;3.30;;;;;;;23.72;49.08;98003.28;5074002;28;20208;-78
2023/07/04 09:15:56;;;;;;;5.53;3.40;;;;;;;23.61;49.79;98003.81;5074409;28;20222;-78
2023/07/04 09:18:37;;;;;;;4.80;3.23;;;;;;;23.55;50.15;98014.50;5074171;28;20227;-78
2023/07/04 09:21:09;;;;;;;5.37;3.50;;;;;;;23.55;49.50;98001.88;5073890;28;20298;-77
2023/07/04 09:23:38;;;;;;;6.10;3.43;;;;;;;23.45;50.69;98016.66;5073864;28;20584;-78
2023/07/04 09:26:05;;;;;;;7.83;3.83;;;;;;;23.28;50.52;98007.97;5073948;28;20218;-77
2023/07/04 09:28:36;;;;;;;5.33;3.10;;;;;;;23.17;50.43;98010.31;5074063;28;20235;-77
2023/07/04 09:31:03;;;;;;;4.20;3.30;;;;;;;23.12;51.22;98008.16;5074061;28;20211;-77
2023/07/04 09:33:30;;;;;;;4.67;3.30;;;;;;;22.96;50.78;98002.94;5074052;28;20203;-77
2023/07/04 09:35:57;;;;;;;4.73;3.57;;;;;;;23.03;50.92;97997.66;5073717;28;20207;-77
2023/07/04 09:38:24;;;;;;;6.23;3.70;;;;;;;23.09;51.35;98008.50;5073551;28;20235;-78
2023/07/04 09:40:54;;;;;;;6.10;3.67;;;;;;;23.08;51.41;98008.69;5073539;28;20211;-78
2023/07/04 09:43:30;;;;;;;4.70;3.50;;;;;;;23.18;50.80;98007.44;5073763;28;20257;-78
2023/07/04 09:46:11;;;;;;;5.93;3.70;;;;;;;23.24;50.45;98006.69;5073401;28;20477;-78
2023/07/04 09:48:39;;;;;;;7.03;3.83;;;;;;;23.35;50.44;98011.56;5073118;28;20236;-77
2023/07/04 09:51:17;;;;;;;8.03;4.10;;;;;;;23.46;49.32;98003.00;5072981;28;20211;-77
2023/07/04 09:53:44;;;;;;;4.97;3.87;;;;;;;23.47;49.57;97998.44;5073221;28;20218;-77
2023/07/04 09:56:11;;;;;;;5.60;3.77;;;;;;;23.48;48.80;97983.94;5073056;28;20207;-78
2023/07/04 09:58:38;;;;;;;7.27;4.57;;;;;;;23.50;48.95;98000.75;5073179;28;20234;-77
2023/07/04 10:01:08;;;;;;;6.30;4.30;;;;;;;23.58;48.57;97987.16;5072694;28;20211;-77
2023/07/04 10:03:36;;;;;;;7.10;4.27;;;;;;;23.78;48.47;97978.22;5072884;28;20294;-77
2023/07/04 10:06:03;;;;;;;5.17;3.90;;;;;;;24.04;47.97;97983.94;5073096;28;20317;-77
2023/07/04 10:08:30;;;;;;;7.63;4.20;;;;;;;24.19;47.00;97970.38;5072216;28;20243;-77
2023/07/04 10:10:59;;;;;;;4.40;3.70;;;;;;;24.22;47.18;97978.06;5072598;28;20651;-77
2023/07/04 10:13:35;;;;;;;6.97;4.10;;;;;;;24.27;48.06;97989.94;5072881;28;20290;-77
2023/07/04 10:16:02;;;;;;;7.67;4.13;;;;;;;24.40;47.34;97979.28;5072815;28;20234;-77
2023/07/04 10:18:30;;;;;;;7.40;4.17;;;;;;;24.42;47.30;97966.41;5072792;28;20234;-77
2023/07/04 10:20:59;;;;;;;6.70;4.33;;;;;;;24.34;46.92;97973.81;5072634;28;20200;-77
2023/07/04 10:23:27;;;;;;;6.33;3.80;;;;;;;24.24;46.56;97957.09;5072744;28;20204;-77
2023/07/04 10:25:55;;;;;;;5.93;4.23;;;;;;;24.21;46.88;97969.13;5072637;28;20203;-77
2023/07/04 10:28:25;;;;;;;7.90;4.27;;;;;;;24.08;47.26;97969.00;5072356;28;20246;-77
2023/07/04 10:30:57;;;;;;;6.53;4.10;;;;;;;23.98;48.35;97967.66;5072505;28;20211;-77
2023/07/04 10:33:29;;;;;;;7.73;4.90;;;;;;;23.85;47.34;97956.72;5072749;28;20554;-77
2023/07/04 10:35:56;;;;;;;5.73;4.30;;;;;;;23.73;47.52;97953.72;5072565;28;20211;-77
2023/07/04 10:38:35;;;;;;;8.10;4.37;;;;;;;23.69;48.05;97956.97;5072295;28;20219;-77
2023/07/04 10:41:12;;;;;;;8.30;4.70;;;;;;;23.67;47.97;97957.19;5072036;28;20211;-78
2023/07/04 10:43:44;;;;;;;6.87;4.80;;;;;;;23.61;47.30;97949.84;5072433;28;20214;-77
2023/07/04 10:46:19;;;;;;;7.30;4.63;;;;;;;23.61;47.95;97957.94;5072418;28;20325;-77
2023/07/04 10:48:51;;;;;;;8.27;4.60;;;;;;;23.69;48.00;97954.25;5072168;28;20226;-77
2023/07/04 10:51:23;;;;;;;6.50;4.73;;;;;;;23.89;47.42;97956.16;5072069;28;20614;-77
2023/07/04 10:53:50;;;;;;;6.93;4.37;;;;;;;24.16;47.07;97959.94;5072289;28;20211;-77
2023/07/04 10:56:21;;;;;;;7.03;5.10;;;;;;;24.51;45.38;97940.06;5072263;28;20592;-77
2023/07/04 10:58:51;;;;;;;6.70;4.83;;;;;;;24.68;44.63;97927.94;5072058;28;20239;-77
2023/07/04 11:01:24;;;;;;;8.83;5.07;;;;;;;24.89;43.42;97939.50;5071757;28;20677;-77
2023/07/04 11:03:56;;;;;;;6.83;4.80;;;;;;;24.85;43.36;97935.53;5071971;28;20686;-77
2023/07/04 11:06:38;;;;;;;6.90;4.80;;;;;;;24.91;43.80;97945.53;5071634;28;20244;-77
2023/07/04 11:09:07;;;;;;;7.37;4.73;;;;;;;25.01;43.70;97956.84;5071468;28;20308;-77
2023/07/04 11:11:34;;;;;;;6.40;5.20;;;;;;;24.84;43.52;97939.25;5071772;28;20207;-77
2023/07/04 11:14:06;;;;;;;6.00;4.43;;;;;;;24.94;43.40;97939.72;5071649;28;20203;-77
2023/07/04 11:16:39;;;;;;;6.37;4.60;;;;;;;25.14;43.78;97948.78;5071903;28;20301;-77
2023/07/04 11:19:14;;;;;;;6.07;4.63;;;;;;;25.38;43.30;97942.88;5071638;28;20231;-77
2023/07/04 11:21:55;;;;;;;6.37;5.13;;;;;;;25.37;42.10;97926.84;5071537;28;20218;-77
2023/07/04 11:24:22;;;;;;;7.13;5.05;;;;;;;25.41;42.24;97928.91;5071562;28;20203;-77
2023/07/04 11:26:55;;;;;;;6.67;4.97;;;;;;;25.43;42.34;97923.31;5071673;28;20223;-77
2023/07/04 11:29:23;;;;;;;7.13;5.50;;;;;;;25.42;42.11;97929.75;5071478;28;20211;-77
2023/07/04 11:32:11;;;;;;;7.30;5.07;;;;;;;25.17;42.12;97934.03;5071640;28;20207;-77
2023/07/04 11:34:47;;;;;;;7.80;5.03;;;;;;;25.02;42.37;97930.59;5071324;28;20704;-77
2023/07/04 11:37:24;;;;;;;7.63;5.17;;;;;;;25.01;42.70;97929.78;5071225;28;20608;-77